AirNav   Air Wisconsin Airman Trainee
 
 985 users online  

27SC Upair Heliport
Lugoff, South Carolina, USA

GOING TO LUGOFF?


FAA INFORMATION EFFECTIVE 28 MARCH 2019

Location

FAA Identifier: 27SC
Lat/Long: 34-13-46.0000N / 080-40-56.0000W
34-13.766667N / 080-40.933333W
34.2294444 / -80.6822222
(estimated)
Elevation: 251 ft. / 77 m (estimated)
From city: 1 mile SE of LUGOFF, SC
Time zone: UTC -4 (UTC -5 during Standard Time)
Zip code: 29078

Heliport Operations

Heliport use: Private use. Permission required prior to landing
Activation date: 06/1989
Control tower: no
ARTCC: JACKSONVILLE CENTER
FSS: ANDERSON FLIGHT SERVICE STATION
Attendance: UNATNDD
Wind indicator: yes
Segmented circle: no

Heliport Communications

WX AWOS-3 at CDN (7 nm NE): 119.975 (803-424-1979)

Nearby radio navigation aids

VOR radial/distance  VOR name  Freq  Var
MMTr026/19.3MC ENTIRE VORTAC113.2008W
CAEr042/29.0COLUMBIA VORTAC114.7002W
CTFr222/32.3CHESTERFIELD VOR/DME108.2003W

 
NDB name  Hdg/Dist  Freq  Var  ID
SUMTER319/21.525207WSMS ... -- ...
HARTSVILLE256/29.834107WHVS .... ...- ...
LANCASTER171/30.940007WLKR .-.. -.- .-.

Heliport Services

Runway Information

Helipad H1

Dimensions: 40 x 40 ft. / 12 x 12 m
Surface: concrete
Latitude: 34-13.766667N
Longitude: 080-40.933333W
Elevation: 251.0 ft.
Traffic pattern: leftleft

Heliport Ownership and Management from official FAA records

Ownership: Privately-owned
Owner: JOE UPCHURCH
852 RIDGEWAY ROAD
LUGOFF, SC 29078
Phone 803-427-3794
Manager: JOE UPCHURCH
852 RIDGEWAY ROAD
LUGOFF, SC 29078
Phone 803-427-3794

Heliport Operational Statistics

Aircraft based on the field: 1
Helicopters: 1
    

Additional Remarks

149 FT ANTENNA 2300 FT N; 350 FT ANTENNA 1740 FT E; AND 85 FT ANTENNA 1500 FT E OF PAD.

Instrument Procedures

There are no published instrument procedures at 27SC.

Some nearby airports with instrument procedures:

KCDN - Woodward Field Airport (7 nm NE)
KSSC - Shaw Air Force Base (19 nm SE)
KMMT - Mc Entire Joint National Guard Base (19 nm S)
KSMS - Sumter Airport (21 nm SE)
KFDW - Fairfield County Airport (22 nm W)
 
Loc | Ops | Rwys | IFR | FBO | Links
Com | Nav | Svcs | Stats | Notes
Area around 27SC (Upair Heliport)
 
Road maps at: MapQuest Bing Google
 
Aerial photo
No photo
 
Sectional chart

 
Airport distance calculator
Flying to Upair Heliport? Find the distance to fly.

From to 27SC

Sunrise and sunset
Times for 18-Apr-2019
 Local
(UTC-4)
 Zulu
(UTC)
Morning civil twilight06:2310:23
Sunrise06:4910:49
Sunset19:5523:55
Evening civil twilight20:2100:21

Current date and time
Zulu (UTC)  18-Apr-2019 23:55:41
Local (UTC-4)  18-Apr-2019 19:55:41
 
METAR
KCDN 
7nm NE 
182335Z AUTO 14008KT 10SM SCT047 SCT075 24/15 A2989 RMK AO2
KSSC 
19nm SE 
182256Z 17009KT 10SM SCT070 SCT200 25/15 A2991
KMMT 
19nm S 
182256Z 17012G24KT 10SM SCT047 SCT080 BKN250 25/16 A2989 RMK AO2A SLP123 T02500156 $
TAF
KSSC 
19nm SE 
181500Z 1815/1921 18012G20KT 9999 BKN030 BKN250 QNH2987INS BECMG 1823/1824 16009KT 9999 SCT020 BKN200 QNH2977INS BECMG 1907/1908 17012KT 9999 BKN010 OVC020 WS020/19040KT QNH2973INS BECMG 1913/1914 17020G31KT 9000 -SHRA VCTS OVC015CB QNH2954INS TEMPO 1918/1921 17025G35KT 4800 TSRA OVC015CB TX28/1819Z TN17/1911Z
KMMT 
19nm S 
181500Z 1815/1921 17012KT 9999 SCT030 SCT250 QNH3000INS BECMG 1816/1817 18012G18KT 9999 SCT030 BKN250 QNH2987INS BECMG 1823/1824 16009KT 9999 SCT020 BKN200 QNH2977INS BECMG 1907/1908 17012KT 9999 BKN010 OVC020 WS020/19040KT QNH2973INS BECMG 1913/1914 17015G25KT 8000 -TSRA OVC015CB QNH2954INS TEMPO 1916/1921 17025G35KT 4800 TSRA OVC015CB TX28/1819Z TN17/1911Z
KCUB 
22nm SW 
182108Z 1821/1918 17008G18KT P6SM BKN050 FM190000 16010KT P6SM SCT050 BKN200 FM190600 18010G22KT P6SM OVC025 WS018/19038KT FM191600 19015G28KT 3SM SHRA OVC025
NOTAMs
Click for the latest NOTAMs
NOTAMs are issued by the DoD/FAA and will open in a separate window not controlled by AirNav.

 

 
 

Would you like to see your business listed on this page?

 If your business provides an interesting product or service to pilots, flight crews, aircraft, or users of the Upair Heliport, you should consider listing it here.  To start the listing process, click on the button below
 
Add a business
 

Other Pages about Upair Heliport

Update a link
 
Copyright © AirNav, LLC. All rights reserved. Privacy Policy  Contact